Adriatic Id — VRFP6 — position and weather

sailwx.info

Track history (hours):
 
Tides and Currents Weather Stations Pressure Air Temp Water Temp Dewpoint Dewpoint Depression Visibility Wind Speed Wind Dir Waves Ship Positions

Adriatic Id

Last reported at 2015-Apr-26 10:29 UTC. Time now 2015-Apr-27 12:16 UTC.
Position N 24°19' E 118°14'.

Length 158 m; draft 9.2 m.

Type: Cargo ship. MMSI: 477559800.

Date/timePositionNaut miles runAvg speedWind from/ knotsBaromVisibWave heightAir tempDewpointWater temp
2015-Apr-26 10:29N 24°19' E 118°14'1010.7
2015-Apr-26 09:34N 24°25' E 118°05'8 7.9
2015-Apr-26 08:33N 24°32' E 118°05'0 0.1
2015-Apr-26 07:14N 24°32' E 118°05'0 0.0
2015-Apr-26 06:32N 24°32' E 118°05'0 0.0
2015-Apr-26 05:32N 24°32' E 118°05'0 0.0
2015-Apr-26 04:08N 24°32' E 118°05'0 0.0
2015-Apr-26 03:32N 24°32' E 118°05'0 0.0
2015-Apr-26 02:08N 24°32' E 118°05'0 0.0
2015-Apr-26 00:26N 24°32' E 118°05'0 0.0
2015-Apr-25 23:20N 24°32' E 118°05'0 0.0
2015-Apr-25 20:17N 24°32' E 118°05'0 0.0
2015-Apr-25 19:08N 24°32' E 118°05'0 0.0
2015-Apr-25 17:32N 24°32' E 118°05'0 0.0
2015-Apr-25 16:25N 24°32' E 118°05'0 0.0
2015-Apr-25 14:25N 24°32' E 118°05'0 0.0
2015-Apr-25 13:13N 24°32' E 118°05'0 0.0
2015-Apr-25 12:31N 24°32' E 118°05'0 0.0
2015-Apr-25 10:04N 24°32' E 118°05'3 5.5
2015-Apr-25 09:33N 24°30' E 118°04'1010.1
2015-Apr-25 08:33N 24°21' E 118°09'6 4.4
2015-Apr-25 07:09N 24°19' E 118°16'0 0.0
2015-Apr-25 06:28N 24°19' E 118°16'0 0.0
2015-Apr-25 05:15N 24°19' E 118°16'0 0.0
2015-Apr-25 03:10N 24°19' E 118°16'0 0.2
2015-Apr-25 02:10N 24°19' E 118°16'5 7.5
2015-Apr-25 01:33N 24°18' E 118°21'9 8.6
2015-Apr-25 00:32N 24°18' E 118°31'8 7.1
2015-Apr-24 23:26N 24°21' E 118°38'8 7.4
2015-Apr-24 22:24N 24°23' E 118°46'  
2015-Apr-21 04:29N 26°05' E 119°44'8 8.3
2015-Apr-21 03:31N 26°08' E 119°35'7 7.4
2015-Apr-21 02:33N 26°03' E 119°30'0 0.2
2015-Apr-21 01:23N 26°03' E 119°30'0 0.0
2015-Apr-21 00:29N 26°03' E 119°30'0 0.0
2015-Apr-20 23:23N 26°03' E 119°30'0 0.0
2015-Apr-20 22:29N 26°03' E 119°30'0 0.0
2015-Apr-20 21:29N 26°03' E 119°30'0 0.0
2015-Apr-20 20:29N 26°03' E 119°30'0 0.0
2015-Apr-20 19:29N 26°03' E 119°30'0 0.0
2015-Apr-20 18:22N 26°03' E 119°30'0 0.0
2015-Apr-20 16:10N 26°03' E 119°30'0 0.0
2015-Apr-20 15:10N 26°03' E 119°30'0 0.0
2015-Apr-20 14:22N 26°03' E 119°30'0 0.0
2015-Apr-20 13:22N 26°03' E 119°30'0 0.0
2015-Apr-20 12:28N 26°03' E 119°30'0 0.0
2015-Apr-20 11:28N 26°03' E 119°30'0 0.0
2015-Apr-20 10:22N 26°03' E 119°30'0 0.0
2015-Apr-20 09:16N 26°03' E 119°30'0 0.0
2015-Apr-20 08:07N 26°03' E 119°30'3 4.9
2015-Apr-20 07:33N 26°05' E 119°32'9 6.6
2015-Apr-20 06:16N 26°06' E 119°41'810.0
2015-Apr-20 05:30N 26°04' E 119°49'3 0.2
2015-Apr-19 15:04N 26°03' E 119°52'  
Track history (hours):
 
Tides and Currents Weather Stations Pressure Air Temp Water Temp Dewpoint Dewpoint Depression Visibility Wind Speed Wind Dir Waves Ship Positions

Adriatic Id

Last reported at 2015-Apr-26 10:29 UTC. Time now 2015-Apr-27 12:16 UTC.
Position N 24°19' E 118°14'.

Length 158 m; draft 9.2 m.

Type: Cargo ship. MMSI: 477559800.

Date/timePositionNaut miles runAvg speedWind from/ knotsBaromVisibWave heightAir tempDewpointWater temp
2015-Apr-26 10:29N 24°19' E 118°14'1010.7
2015-Apr-26 09:34N 24°25' E 118°05'8 7.9
2015-Apr-26 08:33N 24°32' E 118°05'0 0.1
2015-Apr-26 07:14N 24°32' E 118°05'0 0.0
2015-Apr-26 06:32N 24°32' E 118°05'0 0.0
2015-Apr-26 05:32N 24°32' E 118°05'0 0.0
2015-Apr-26 04:08N 24°32' E 118°05'0 0.0
2015-Apr-26 03:32N 24°32' E 118°05'0 0.0
2015-Apr-26 02:08N 24°32' E 118°05'0 0.0
2015-Apr-26 00:26N 24°32' E 118°05'0 0.0
2015-Apr-25 23:20N 24°32' E 118°05'0 0.0
2015-Apr-25 20:17N 24°32' E 118°05'0 0.0
2015-Apr-25 19:08N 24°32' E 118°05'0 0.0
2015-Apr-25 17:32N 24°32' E 118°05'0 0.0
2015-Apr-25 16:25N 24°32' E 118°05'0 0.0
2015-Apr-25 14:25N 24°32' E 118°05'0 0.0
2015-Apr-25 13:13N 24°32' E 118°05'0 0.0
2015-Apr-25 12:31N 24°32' E 118°05'0 0.0
2015-Apr-25 10:04N 24°32' E 118°05'3 5.5
2015-Apr-25 09:33N 24°30' E 118°04'1010.1
2015-Apr-25 08:33N 24°21' E 118°09'6 4.4
2015-Apr-25 07:09N 24°19' E 118°16'0 0.0
2015-Apr-25 06:28N 24°19' E 118°16'0 0.0
2015-Apr-25 05:15N 24°19' E 118°16'0 0.0
2015-Apr-25 03:10N 24°19' E 118°16'0 0.2
2015-Apr-25 02:10N 24°19' E 118°16'5 7.5
2015-Apr-25 01:33N 24°18' E 118°21'9 8.6
2015-Apr-25 00:32N 24°18' E 118°31'8 7.1
2015-Apr-24 23:26N 24°21' E 118°38'8 7.4
2015-Apr-24 22:24N 24°23' E 118°46'  
2015-Apr-21 04:29N 26°05' E 119°44'8 8.3
2015-Apr-21 03:31N 26°08' E 119°35'7 7.4
2015-Apr-21 02:33N 26°03' E 119°30'0 0.2
2015-Apr-21 01:23N 26°03' E 119°30'0 0.0
2015-Apr-21 00:29N 26°03' E 119°30'0 0.0
2015-Apr-20 23:23N 26°03' E 119°30'0 0.0
2015-Apr-20 22:29N 26°03' E 119°30'0 0.0
2015-Apr-20 21:29N 26°03' E 119°30'0 0.0
2015-Apr-20 20:29N 26°03' E 119°30'0 0.0
2015-Apr-20 19:29N 26°03' E 119°30'0 0.0
2015-Apr-20 18:22N 26°03' E 119°30'0 0.0
2015-Apr-20 16:10N 26°03' E 119°30'0 0.0
2015-Apr-20 15:10N 26°03' E 119°30'0 0.0
2015-Apr-20 14:22N 26°03' E 119°30'0 0.0
2015-Apr-20 13:22N 26°03' E 119°30'0 0.0
2015-Apr-20 12:28N 26°03' E 119°30'0 0.0
2015-Apr-20 11:28N 26°03' E 119°30'0 0.0
2015-Apr-20 10:22N 26°03' E 119°30'0 0.0
2015-Apr-20 09:16N 26°03' E 119°30'0 0.0
2015-Apr-20 08:07N 26°03' E 119°30'3 4.9
2015-Apr-20 07:33N 26°05' E 119°32'9 6.6
2015-Apr-20 06:16N 26°06' E 119°41'810.0
2015-Apr-20 05:30N 26°04' E 119°49'3 0.2
2015-Apr-19 15:04N 26°03' E 119°52'  

Dump ship's entire track history